sensor_id;sensor_type;location;lat;lon;timestamp;pressure;altitude;pressure_sealevel;temperature;humidity
61870;BME280;47810;42.264;23.826;2023-02-23T00:01:13;93712.31;;;7.57;57.15
61870;BME280;47810;42.264;23.826;2023-02-23T00:03:40;93701.75;;;7.59;57.14
61870;BME280;47810;42.264;23.826;2023-02-23T00:06:06;93705.50;;;7.55;57.10
61870;BME280;47810;42.264;23.826;2023-02-23T00:08:32;93707.69;;;7.62;56.65
61870;BME280;47810;42.264;23.826;2023-02-23T00:11:01;93707.69;;;7.62;56.47
61870;BME280;47810;42.264;23.826;2023-02-23T00:13:26;93709.53;;;7.60;56.85
61870;BME280;47810;42.264;23.826;2023-02-23T00:15:52;93709.03;;;7.54;57.36
61870;BME280;47810;42.264;23.826;2023-02-23T00:18:19;93714.94;;;7.57;56.96
61870;BME280;47810;42.264;23.826;2023-02-23T00:20:53;93709.97;;;7.53;56.77
61870;BME280;47810;42.264;23.826;2023-02-23T00:23:22;93709.34;;;7.63;56.61
61870;BME280;47810;42.264;23.826;2023-02-23T00:25:47;93713.34;;;7.70;56.34
61870;BME280;47810;42.264;23.826;2023-02-23T00:28:13;93716.34;;;7.33;58.05
61870;BME280;47810;42.264;23.826;2023-02-23T00:30:39;93711.94;;;7.49;57.05
61870;BME280;47810;42.264;23.826;2023-02-23T00:33:04;93721.41;;;7.20;57.78
61870;BME280;47810;42.264;23.826;2023-02-23T00:35:31;93718.31;;;6.96;58.52
61870;BME280;47810;42.264;23.826;2023-02-23T00:37:57;93717.28;;;6.83;58.77
61870;BME280;47810;42.264;23.826;2023-02-23T00:40:22;93714.81;;;6.80;58.93
61870;BME280;47810;42.264;23.826;2023-02-23T00:42:49;93717.91;;;6.88;59.09
61870;BME280;47810;42.264;23.826;2023-02-23T00:45:16;93709.69;;;6.94;58.67
61870;BME280;47810;42.264;23.826;2023-02-23T00:47:42;93711.78;;;6.71;59.08
61870;BME280;47810;42.264;23.826;2023-02-23T00:50:12;93711.44;;;6.44;60.02
61870;BME280;47810;42.264;23.826;2023-02-23T00:52:39;93714.16;;;6.43;60.04
61870;BME280;47810;42.264;23.826;2023-02-23T00:55:06;93711.69;;;6.40;60.01
61870;BME280;47810;42.264;23.826;2023-02-23T00:57:32;93707.19;;;6.42;60.17
61870;BME280;47810;42.264;23.826;2023-02-23T00:59:57;93702.66;;;6.28;60.46
61870;BME280;47810;42.264;23.826;2023-02-23T01:02:23;93715.22;;;6.21;60.95
61870;BME280;47810;42.264;23.826;2023-02-23T01:04:49;93706.13;;;6.28;61.02
61870;BME280;47810;42.264;23.826;2023-02-23T01:07:15;93700.25;;;6.41;60.70
61870;BME280;47810;42.264;23.826;2023-02-23T01:09:40;93704.44;;;6.61;59.59
61870;BME280;47810;42.264;23.826;2023-02-23T01:12:06;93706.53;;;6.54;59.50
61870;BME280;47810;42.264;23.826;2023-02-23T01:14:32;93699.03;;;6.30;60.18
61870;BME280;47810;42.264;23.826;2023-02-23T01:16:58;93711.97;;;6.16;60.60
61870;BME280;47810;42.264;23.826;2023-02-23T01:19:24;93701.22;;;6.05;60.97
61870;BME280;47810;42.264;23.826;2023-02-23T01:21:50;93704.63;;;6.07;61.35
61870;BME280;47810;42.264;23.826;2023-02-23T01:24:15;93702.28;;;6.18;60.91
61870;BME280;47810;42.264;23.826;2023-02-23T01:26:42;93703.13;;;6.01;61.56
61870;BME280;47810;42.264;23.826;2023-02-23T01:29:13;93700.59;;;6.00;61.45
61870;BME280;47810;42.264;23.826;2023-02-23T01:31:41;93700.72;;;5.97;61.77
61870;BME280;47810;42.264;23.826;2023-02-23T01:34:07;93702.22;;;6.02;61.80
61870;BME280;47810;42.264;23.826;2023-02-23T01:36:34;93695.81;;;6.08;61.29
61870;BME280;47810;42.264;23.826;2023-02-23T01:39:00;93700.28;;;6.06;61.67
61870;BME280;47810;42.264;23.826;2023-02-23T01:41:26;93698.50;;;6.24;60.63
61870;BME280;47810;42.264;23.826;2023-02-23T01:44:00;93705.06;;;6.15;60.58
61870;BME280;47810;42.264;23.826;2023-02-23T01:46:29;93703.97;;;6.02;61.12
61870;BME280;47810;42.264;23.826;2023-02-23T01:48:55;93699.84;;;5.98;61.51
61870;BME280;47810;42.264;23.826;2023-02-23T01:51:22;93696.22;;;6.00;61.78
61870;BME280;47810;42.264;23.826;2023-02-23T01:53:53;93702.16;;;6.04;61.76
61870;BME280;47810;42.264;23.826;2023-02-23T01:56:22;93706.00;;;6.14;61.38
61870;BME280;47810;42.264;23.826;2023-02-23T01:58:52;93706.75;;;6.16;60.80
61870;BME280;47810;42.264;23.826;2023-02-23T02:01:19;93705.06;;;6.15;61.08
61870;BME280;47810;42.264;23.826;2023-02-23T02:03:55;93700.34;;;6.22;60.83
61870;BME280;47810;42.264;23.826;2023-02-23T02:06:23;93701.03;;;6.25;60.49
61870;BME280;47810;42.264;23.826;2023-02-23T02:08:50;93694.94;;;6.25;60.71
61870;BME280;47810;42.264;23.826;2023-02-23T02:11:19;93703.66;;;6.25;60.54
61870;BME280;47810;42.264;23.826;2023-02-23T02:14:14;93702.75;;;6.26;60.57
61870;BME280;47810;42.264;23.826;2023-02-23T02:30:18;93705.63;;;5.68;62.30
61870;BME280;47810;42.264;23.826;2023-02-23T02:35:38;93700.75;;;5.24;64.33
61870;BME280;47810;42.264;23.826;2023-02-23T02:40:40;93699.78;;;4.70;66.20
61870;BME280;47810;42.264;23.826;2023-02-23T02:43:36;93701.69;;;4.66;66.58
61870;BME280;47810;42.264;23.826;2023-02-23T02:46:22;93700.19;;;4.61;66.74
61870;BME280;47810;42.264;23.826;2023-02-23T02:56:45;93703.63;;;4.82;66.09
61870;BME280;47810;42.264;23.826;2023-02-23T02:59:16;93702.47;;;4.87;66.44
61870;BME280;47810;42.264;23.826;2023-02-23T03:02:00;93712.50;;;5.16;64.77
61870;BME280;47810;42.264;23.826;2023-02-23T03:04:44;93705.72;;;5.30;64.72
61870;BME280;47810;42.264;23.826;2023-02-23T03:07:30;93716.34;;;5.45;63.97
61870;BME280;47810;42.264;23.826;2023-02-23T03:10:30;93701.88;;;5.37;64.22
61870;BME280;47810;42.264;23.826;2023-02-23T03:13:27;93709.22;;;5.29;64.08
61870;BME280;47810;42.264;23.826;2023-02-23T03:21:54;93713.16;;;5.21;64.00
61870;BME280;47810;42.264;23.826;2023-02-23T03:33:03;93720.88;;;4.47;66.29
61870;BME280;47810;42.264;23.826;2023-02-23T03:35:54;93713.19;;;4.43;66.84
61870;BME280;47810;42.264;23.826;2023-02-23T03:39:03;93717.22;;;4.51;66.85
61870;BME280;47810;42.264;23.826;2023-02-23T03:41:45;93707.56;;;4.53;67.17
61870;BME280;47810;42.264;23.826;2023-02-23T03:44:35;93712.63;;;4.56;67.21
61870;BME280;47810;42.264;23.826;2023-02-23T03:47:22;93709.25;;;4.54;67.01
61870;BME280;47810;42.264;23.826;2023-02-23T03:50:08;93716.72;;;4.61;67.05
61870;BME280;47810;42.264;23.826;2023-02-23T03:52:55;93714.69;;;4.68;66.91
61870;BME280;47810;42.264;23.826;2023-02-23T03:55:42;93718.31;;;4.65;66.89
61870;BME280;47810;42.264;23.826;2023-02-23T03:58:38;93722.53;;;4.68;66.64
61870;BME280;47810;42.264;23.826;2023-02-23T04:01:23;93717.72;;;4.59;67.05
61870;BME280;47810;42.264;23.826;2023-02-23T04:04:09;93723.81;;;4.59;67.31
61870;BME280;47810;42.264;23.826;2023-02-23T04:06:55;93721.91;;;4.42;67.67
61870;BME280;47810;42.264;23.826;2023-02-23T04:09:40;93714.06;;;4.63;67.28
61870;BME280;47810;42.264;23.826;2023-02-23T04:12:36;93719.69;;;4.54;67.25
61870;BME280;47810;42.264;23.826;2023-02-23T04:15:26;93712.81;;;4.51;67.71
61870;BME280;47810;42.264;23.826;2023-02-23T04:17:54;93713.69;;;4.52;67.55
61870;BME280;47810;42.264;23.826;2023-02-23T04:20:20;93717.72;;;4.59;67.25
61870;BME280;47810;42.264;23.826;2023-02-23T04:22:45;93712.34;;;4.62;67.21
61870;BME280;47810;42.264;23.826;2023-02-23T04:25:11;93716.09;;;4.56;67.43
61870;BME280;47810;42.264;23.826;2023-02-23T04:27:37;93716.22;;;4.53;67.57
61870;BME280;47810;42.264;23.826;2023-02-23T04:30:03;93716.19;;;4.34;68.02
61870;BME280;47810;42.264;23.826;2023-02-23T04:32:29;93713.03;;;4.47;67.26
61870;BME280;47810;42.264;23.826;2023-02-23T04:34:55;93711.19;;;4.49;67.54
61870;BME280;47810;42.264;23.826;2023-02-23T04:37:20;93718.16;;;4.50;67.53
61870;BME280;47810;42.264;23.826;2023-02-23T04:39:46;93714.06;;;4.63;66.71
61870;BME280;47810;42.264;23.826;2023-02-23T04:42:14;93717.44;;;4.65;66.67
61870;BME280;47810;42.264;23.826;2023-02-23T04:44:40;93714.81;;;4.65;66.42
61870;BME280;47810;42.264;23.826;2023-02-23T04:47:06;93722.19;;;4.76;66.00
61870;BME280;47810;42.264;23.826;2023-02-23T04:49:31;93715.63;;;4.86;65.62
61870;BME280;47810;42.264;23.826;2023-02-23T04:51:57;93724.94;;;4.73;66.43
61870;BME280;47810;42.264;23.826;2023-02-23T04:54:23;93725.56;;;4.78;66.01
61870;BME280;47810;42.264;23.826;2023-02-23T04:56:48;93732.03;;;4.89;65.30
61870;BME280;47810;42.264;23.826;2023-02-23T04:59:14;93727.31;;;4.58;66.09
61870;BME280;47810;42.264;23.826;2023-02-23T05:01:39;93731.00;;;4.54;66.24
61870;BME280;47810;42.264;23.826;2023-02-23T05:04:05;93728.31;;;4.56;66.38
61870;BME280;47810;42.264;23.826;2023-02-23T05:06:30;93738.75;;;4.56;66.77
61870;BME280;47810;42.264;23.826;2023-02-23T05:08:56;93729.75;;;4.63;66.47
61870;BME280;47810;42.264;23.826;2023-02-23T05:11:21;93736.81;;;4.61;66.68
61870;BME280;47810;42.264;23.826;2023-02-23T05:13:48;93734.84;;;4.66;66.51
61870;BME280;47810;42.264;23.826;2023-02-23T05:16:13;93733.59;;;4.54;66.59
61870;BME280;47810;42.264;23.826;2023-02-23T05:18:39;93735.19;;;4.38;67.75
61870;BME280;47810;42.264;23.826;2023-02-23T05:21:05;93736.03;;;4.38;67.46
61870;BME280;47810;42.264;23.826;2023-02-23T05:23:32;93740.06;;;4.66;67.58
61870;BME280;47810;42.264;23.826;2023-02-23T05:26:09;93747.47;;;4.36;68.31
61870;BME280;47810;42.264;23.826;2023-02-23T05:28:36;93754.63;;;4.12;69.02
61870;BME280;47810;42.264;23.826;2023-02-23T05:31:02;93751.34;;;4.07;69.56
61870;BME280;47810;42.264;23.826;2023-02-23T05:33:28;93750.75;;;4.00;69.68
61870;BME280;47810;42.264;23.826;2023-02-23T05:35:53;93758.00;;;4.14;69.19
61870;BME280;47810;42.264;23.826;2023-02-23T05:38:19;93755.91;;;4.22;69.00
61870;BME280;47810;42.264;23.826;2023-02-23T05:40:45;93758.91;;;4.33;69.10
61870;BME280;47810;42.264;23.826;2023-02-23T05:43:11;93761.91;;;4.44;68.45
61870;BME280;47810;42.264;23.826;2023-02-23T05:45:40;93756.28;;;4.54;68.05
61870;BME280;47810;42.264;23.826;2023-02-23T05:48:06;93762.03;;;4.62;67.95
61870;BME280;47810;42.264;23.826;2023-02-23T05:50:31;93761.13;;;4.63;68.22
61870;BME280;47810;42.264;23.826;2023-02-23T05:52:57;93764.50;;;4.65;68.41
61870;BME280;47810;42.264;23.826;2023-02-23T05:55:22;93773.94;;;4.69;67.93
61870;BME280;47810;42.264;23.826;2023-02-23T05:57:48;93773.50;;;4.78;67.04
61870;BME280;47810;42.264;23.826;2023-02-23T06:00:15;93772.91;;;4.92;66.53
61870;BME280;47810;42.264;23.826;2023-02-23T06:02:40;93775.03;;;5.03;65.57
61870;BME280;47810;42.264;23.826;2023-02-23T06:05:07;93776.72;;;5.04;65.36
61870;BME280;47810;42.264;23.826;2023-02-23T06:07:33;93770.59;;;5.05;65.17
61870;BME280;47810;42.264;23.826;2023-02-23T06:09:58;93776.72;;;5.04;65.53
61870;BME280;47810;42.264;23.826;2023-02-23T06:12:24;93784.66;;;5.02;65.65
61870;BME280;47810;42.264;23.826;2023-02-23T06:14:50;93778.84;;;4.96;66.92
61870;BME280;47810;42.264;23.826;2023-02-23T06:17:16;93775.94;;;5.02;66.10
61870;BME280;47810;42.264;23.826;2023-02-23T06:19:42;93783.31;;;5.12;65.68
61870;BME280;47810;42.264;23.826;2023-02-23T06:22:07;93783.81;;;5.21;65.06
61870;BME280;47810;42.264;23.826;2023-02-23T06:24:33;93782.19;;;5.18;64.94
61870;BME280;47810;42.264;23.826;2023-02-23T06:26:59;93784.81;;;5.18;64.25
61870;BME280;47810;42.264;23.826;2023-02-23T06:29:24;93785.66;;;5.19;64.09
61870;BME280;47810;42.264;23.826;2023-02-23T06:31:50;93792.28;;;5.07;64.36
61870;BME280;47810;42.264;23.826;2023-02-23T06:34:15;93791.28;;;5.09;64.29
61870;BME280;47810;42.264;23.826;2023-02-23T06:36:41;93797.50;;;5.07;66.20
61870;BME280;47810;42.264;23.826;2023-02-23T06:39:06;93801.56;;;5.14;65.13
61870;BME280;47810;42.264;23.826;2023-02-23T06:41:32;93799.94;;;5.11;65.61
61870;BME280;47810;42.264;23.826;2023-02-23T06:43:58;93795.53;;;5.12;65.27
61870;BME280;47810;42.264;23.826;2023-02-23T06:46:23;93799.38;;;5.05;65.20
61870;BME280;47810;42.264;23.826;2023-02-23T06:48:52;93804.19;;;5.14;64.98
61870;BME280;47810;42.264;23.826;2023-02-23T06:51:39;93797.81;;;5.20;64.99
61870;BME280;47810;42.264;23.826;2023-02-23T06:54:04;93800.50;;;5.18;66.11
61870;BME280;47810;42.264;23.826;2023-02-23T06:56:30;93802.06;;;5.22;65.89
61870;BME280;47810;42.264;23.826;2023-02-23T06:58:55;93799.94;;;5.30;65.50
61870;BME280;47810;42.264;23.826;2023-02-23T07:01:21;93798.09;;;5.32;65.06
61870;BME280;47810;42.264;23.826;2023-02-23T07:03:46;93797.81;;;5.38;65.18
61870;BME280;47810;42.264;23.826;2023-02-23T07:06:12;93796.69;;;5.44;65.44
61870;BME280;47810;42.264;23.826;2023-02-23T07:08:38;93799.56;;;5.57;65.09
61870;BME280;47810;42.264;23.826;2023-02-23T07:11:07;93795.28;;;5.56;65.43
61870;BME280;47810;42.264;23.826;2023-02-23T07:13:33;93794.34;;;5.57;64.26
61870;BME280;47810;42.264;23.826;2023-02-23T07:15:58;93793.75;;;5.69;64.75
61870;BME280;47810;42.264;23.826;2023-02-23T07:18:24;93794.22;;;5.77;64.72
61870;BME280;47810;42.264;23.826;2023-02-23T07:20:50;93789.47;;;5.86;64.43
61870;BME280;47810;42.264;23.826;2023-02-23T07:23:18;93789.63;;;5.82;65.27
61870;BME280;47810;42.264;23.826;2023-02-23T07:25:44;93794.09;;;5.80;65.32
61870;BME280;47810;42.264;23.826;2023-02-23T07:28:09;93788.28;;;5.93;64.39
61870;BME280;47810;42.264;23.826;2023-02-23T07:30:38;93792.38;;;5.98;63.96
61870;BME280;47810;42.264;23.826;2023-02-23T07:33:04;93792.63;;;6.11;64.01
61870;BME280;47810;42.264;23.826;2023-02-23T07:35:29;93792.63;;;6.11;64.63
61870;BME280;47810;42.264;23.826;2023-02-23T07:37:56;93795.66;;;6.21;65.36
61870;BME280;47810;42.264;23.826;2023-02-23T07:40:21;93791.09;;;6.42;65.60
61870;BME280;47810;42.264;23.826;2023-02-23T07:42:48;93790.09;;;6.62;64.96
61870;BME280;47810;42.264;23.826;2023-02-23T07:45:13;93797.28;;;6.58;64.24
61870;BME280;47810;42.264;23.826;2023-02-23T07:47:39;93797.28;;;6.58;64.28
61870;BME280;47810;42.264;23.826;2023-02-23T07:50:05;93800.81;;;6.57;64.39
61870;BME280;47810;42.264;23.826;2023-02-23T07:52:38;93792.22;;;6.88;63.79
61870;BME280;47810;42.264;23.826;2023-02-23T07:55:04;93792.44;;;6.84;63.48
61870;BME280;47810;42.264;23.826;2023-02-23T07:57:29;93799.41;;;6.85;63.22
61870;BME280;47810;42.264;23.826;2023-02-23T07:59:55;93791.06;;;6.94;62.29
61870;BME280;47810;42.264;23.826;2023-02-23T08:02:21;93785.25;;;7.05;62.50
61870;BME280;47810;42.264;23.826;2023-02-23T08:04:46;93782.53;;;7.06;62.51
61870;BME280;47810;42.264;23.826;2023-02-23T08:07:12;93788.84;;;7.19;62.26
61870;BME280;47810;42.264;23.826;2023-02-23T08:09:38;93785.72;;;7.44;61.53
61870;BME280;47810;42.264;23.826;2023-02-23T08:12:03;93783.59;;;7.51;61.58
61870;BME280;47810;42.264;23.826;2023-02-23T08:14:29;93779.72;;;7.90;61.22
61870;BME280;47810;42.264;23.826;2023-02-23T08:16:54;93786.31;;;7.97;60.75
61870;BME280;47810;42.264;23.826;2023-02-23T08:19:27;93778.19;;;8.32;60.42
61870;BME280;47810;42.264;23.826;2023-02-23T08:21:52;93783.84;;;8.56;60.70
61870;BME280;47810;42.264;23.826;2023-02-23T08:24:22;93776.56;;;8.90;60.46
61870;BME280;47810;42.264;23.826;2023-02-23T08:26:47;93780.81;;;9.21;59.32
61870;BME280;47810;42.264;23.826;2023-02-23T08:29:14;93775.91;;;9.43;58.33
61870;BME280;47810;42.264;23.826;2023-02-23T08:31:40;93776.63;;;9.74;57.98
61870;BME280;47810;42.264;23.826;2023-02-23T08:34:07;93777.72;;;9.98;56.41
61870;BME280;47810;42.264;23.826;2023-02-23T08:36:34;93781.69;;;10.18;56.06
61870;BME280;47810;42.264;23.826;2023-02-23T08:39:02;93781.28;;;10.52;57.64
61870;BME280;47810;42.264;23.826;2023-02-23T08:41:31;93784.13;;;10.88;54.73
61870;BME280;47810;42.264;23.826;2023-02-23T08:43:57;93778.72;;;11.03;53.51
61870;BME280;47810;42.264;23.826;2023-02-23T08:46:24;93780.13;;;11.34;53.22
61870;BME280;47810;42.264;23.826;2023-02-23T08:48:49;93774.25;;;11.67;51.55
61870;BME280;47810;42.264;23.826;2023-02-23T08:51:15;93769.91;;;11.92;51.44
61870;BME280;47810;42.264;23.826;2023-02-23T08:53:41;93775.75;;;12.08;51.15
61870;BME280;47810;42.264;23.826;2023-02-23T08:56:06;93767.53;;;12.48;50.90
61870;BME280;47810;42.264;23.826;2023-02-23T08:58:35;93773.00;;;12.93;48.19
61870;BME280;47810;42.264;23.826;2023-02-23T09:01:02;93766.47;;;12.86;48.60
61870;BME280;47810;42.264;23.826;2023-02-23T09:03:30;93775.44;;;13.07;49.02
61870;BME280;47810;42.264;23.826;2023-02-23T09:05:56;93772.03;;;13.40;46.88
61870;BME280;47810;42.264;23.826;2023-02-23T09:08:23;93770.47;;;13.49;46.98
61870;BME280;47810;42.264;23.826;2023-02-23T09:10:49;93764.69;;;13.78;46.22
61870;BME280;47810;42.264;23.826;2023-02-23T09:13:15;93765.50;;;14.01;46.04
61870;BME280;47810;42.264;23.826;2023-02-23T09:15:42;93765.31;;;14.36;44.24
61870;BME280;47810;42.264;23.826;2023-02-23T09:18:11;93767.66;;;14.50;44.44
61870;BME280;47810;42.264;23.826;2023-02-23T09:20:41;93769.50;;;14.61;44.68
61870;BME280;47810;42.264;23.826;2023-02-23T09:23:08;93771.16;;;14.94;43.28
61870;BME280;47810;42.264;23.826;2023-02-23T09:25:37;93766.88;;;15.24;42.90
61870;BME280;47810;42.264;23.826;2023-02-23T09:28:08;93779.19;;;15.25;41.91
61870;BME280;47810;42.264;23.826;2023-02-23T09:30:33;93767.44;;;15.27;43.90
61870;BME280;47810;42.264;23.826;2023-02-23T09:33:01;93773.72;;;15.47;41.98
61870;BME280;47810;42.264;23.826;2023-02-23T09:35:26;93768.47;;;15.57;41.75
61870;BME280;47810;42.264;23.826;2023-02-23T09:37:55;93771.78;;;15.49;41.76
61870;BME280;47810;42.264;23.826;2023-02-23T09:40:27;93767.19;;;15.51;41.50
61870;BME280;47810;42.264;23.826;2023-02-23T09:45:22;93770.84;;;16.12;40.87
61870;BME280;47810;42.264;23.826;2023-02-23T09:48:14;93767.66;;;16.37;41.48
61870;BME280;47810;42.264;23.826;2023-02-23T09:50:41;93763.47;;;16.35;40.32
61870;BME280;47810;42.264;23.826;2023-02-23T09:53:31;93768.25;;;16.50;39.46
61870;BME280;47810;42.264;23.826;2023-02-23T09:55:56;93765.13;;;16.36;41.15
61870;BME280;47810;42.264;23.826;2023-02-23T09:58:24;93761.66;;;16.54;39.58
61870;BME280;47810;42.264;23.826;2023-02-23T10:03:35;93760.25;;;16.60;39.35
61870;BME280;47810;42.264;23.826;2023-02-23T10:06:04;93755.34;;;16.56;39.52
61870;BME280;47810;42.264;23.826;2023-02-23T10:24:21;93741.91;;;17.06;38.24
61870;BME280;47810;42.264;23.826;2023-02-23T10:29:28;93738.25;;;17.07;38.21
61870;BME280;47810;42.264;23.826;2023-02-23T10:35:29;93739.09;;;17.07;38.11
61870;BME280;47810;42.264;23.826;2023-02-23T10:37:41;93732.88;;;17.26;38.07
61870;BME280;47810;42.264;23.826;2023-02-23T10:40:13;93734.28;;;17.20;38.19
61870;BME280;47810;42.264;23.826;2023-02-23T10:42:39;93734.63;;;17.55;37.89
61870;BME280;47810;42.264;23.826;2023-02-23T10:45:11;93728.50;;;17.44;37.35
61870;BME280;47810;42.264;23.826;2023-02-23T10:47:43;93727.94;;;17.41;38.57
61870;BME280;47810;42.264;23.826;2023-02-23T10:50:10;93730.31;;;17.44;37.53
61870;BME280;47810;42.264;23.826;2023-02-23T10:52:41;93723.31;;;17.33;37.54
61870;BME280;47810;42.264;23.826;2023-02-23T10:55:31;93718.00;;;17.23;37.98
61870;BME280;47810;42.264;23.826;2023-02-23T10:58:15;93717.63;;;17.56;38.14
61870;BME280;47810;42.264;23.826;2023-02-23T11:00:52;93713.38;;;17.82;37.14
61870;BME280;47810;42.264;23.826;2023-02-23T11:03:25;93712.66;;;17.80;36.53
61870;BME280;47810;42.264;23.826;2023-02-23T11:05:54;93711.66;;;17.81;36.89
61870;BME280;47810;42.264;23.826;2023-02-23T11:13:23;93718.22;;;17.50;37.20
61870;BME280;47810;42.264;23.826;2023-02-23T11:16:07;93702.91;;;17.52;37.50
61870;BME280;47810;42.264;23.826;2023-02-23T11:18:51;93701.31;;;17.59;36.47
61870;BME280;47810;42.264;23.826;2023-02-23T11:21:23;93707.19;;;17.72;37.07
61870;BME280;47810;42.264;23.826;2023-02-23T11:23:52;93704.69;;;17.61;36.92
61870;BME280;47810;42.264;23.826;2023-02-23T11:26:22;93699.47;;;17.79;36.91
61870;BME280;47810;42.264;23.826;2023-02-23T11:29:01;93698.31;;;18.09;37.04
61870;BME280;47810;42.264;23.826;2023-02-23T11:31:35;93697.44;;;18.18;36.48
61870;BME280;47810;42.264;23.826;2023-02-23T11:34:05;93684.25;;;18.07;36.18
61870;BME280;47810;42.264;23.826;2023-02-23T11:36:32;93699.88;;;18.29;36.00
61870;BME280;47810;42.264;23.826;2023-02-23T11:39:18;93694.63;;;18.37;35.25
61870;BME280;47810;42.264;23.826;2023-02-23T11:42:34;93697.22;;;18.47;35.02
61870;BME280;47810;42.264;23.826;2023-02-23T11:44:35;93688.41;;;18.19;35.22
61870;BME280;47810;42.264;23.826;2023-02-23T11:47:01;93700.94;;;18.19;35.11
61870;BME280;47810;42.264;23.826;2023-02-23T11:49:31;93699.91;;;18.02;35.67
61870;BME280;47810;42.264;23.826;2023-02-23T11:52:03;93696.00;;;17.49;36.26
61870;BME280;47810;42.264;23.826;2023-02-23T11:54:56;93699.91;;;18.02;36.00
61870;BME280;47810;42.264;23.826;2023-02-23T11:57:30;93704.38;;;18.11;36.10
61870;BME280;47810;42.264;23.826;2023-02-23T12:00:41;93698.72;;;17.86;36.10
61870;BME280;47810;42.264;23.826;2023-02-23T12:02:49;93705.69;;;17.97;35.86
61870;BME280;47810;42.264;23.826;2023-02-23T12:05:19;93710.72;;;18.00;36.34
61870;BME280;47810;42.264;23.826;2023-02-23T12:17:59;93703.16;;;17.96;36.42
61870;BME280;47810;42.264;23.826;2023-02-23T12:20:30;93698.84;;;17.75;36.25
61870;BME280;47810;42.264;23.826;2023-02-23T12:23:05;93701.91;;;17.62;36.44
61870;BME280;47810;42.264;23.826;2023-02-23T12:26:17;93710.00;;;17.70;37.00
61870;BME280;47810;42.264;23.826;2023-02-23T12:33:43;93704.34;;;17.83;36.02
61870;BME280;47810;42.264;23.826;2023-02-23T12:39:01;93701.88;;;18.00;35.87
61870;BME280;47810;42.264;23.826;2023-02-23T12:47:19;93721.28;;;18.02;36.46
61870;BME280;47810;42.264;23.826;2023-02-23T12:50:31;93711.38;;;18.39;35.76
61870;BME280;47810;42.264;23.826;2023-02-23T12:52:41;93721.84;;;18.69;35.86
61870;BME280;47810;42.264;23.826;2023-02-23T12:55:09;93715.84;;;18.84;35.08
61870;BME280;47810;42.264;23.826;2023-02-23T12:57:36;93712.47;;;18.82;35.26
61870;BME280;47810;42.264;23.826;2023-02-23T13:05:40;93715.50;;;17.79;36.96
61870;BME280;47810;42.264;23.826;2023-02-23T13:08:26;93721.34;;;17.35;37.18
61870;BME280;47810;42.264;23.826;2023-02-23T13:10:54;93712.00;;;17.59;37.11
61870;BME280;47810;42.264;23.826;2023-02-23T13:15:59;93718.91;;;17.52;37.22
61870;BME280;47810;42.264;23.826;2023-02-23T13:31:43;93721.53;;;15.77;40.58
61870;BME280;47810;42.264;23.826;2023-02-23T13:34:28;93723.25;;;15.57;41.16
61870;BME280;47810;42.264;23.826;2023-02-23T13:36:57;93726.66;;;15.38;41.58
61870;BME280;47810;42.264;23.826;2023-02-23T13:49:56;93731.53;;;15.64;40.97
61870;BME280;47810;42.264;23.826;2023-02-23T13:54:54;93724.06;;;15.88;40.96
61870;BME280;47810;42.264;23.826;2023-02-23T13:57:25;93729.66;;;15.85;40.84
61870;BME280;47810;42.264;23.826;2023-02-23T13:59:52;93731.03;;;15.70;41.38
61870;BME280;47810;42.264;23.826;2023-02-23T14:07:37;93740.00;;;15.27;42.36
61870;BME280;47810;42.264;23.826;2023-02-23T14:10:21;93739.88;;;15.07;42.72
61870;BME280;47810;42.264;23.826;2023-02-23T14:15:49;93751.50;;;14.53;44.06
61870;BME280;47810;42.264;23.826;2023-02-23T14:20:48;93754.66;;;14.04;45.66
61870;BME280;47810;42.264;23.826;2023-02-23T14:34:30;93757.81;;;13.64;47.69
61870;BME280;47810;42.264;23.826;2023-02-23T14:36:26;93761.53;;;13.50;47.96
61870;BME280;47810;42.264;23.826;2023-02-23T14:41:20;93755.69;;;13.22;48.55
61870;BME280;47810;42.264;23.826;2023-02-23T14:43:51;93754.97;;;13.20;49.04
61870;BME280;47810;42.264;23.826;2023-02-23T14:46:19;93756.66;;;13.21;48.86
61870;BME280;47810;42.264;23.826;2023-02-23T14:48:54;93762.50;;;13.26;48.76
61870;BME280;47810;42.264;23.826;2023-02-23T14:51:32;93766.03;;;13.03;49.57
61870;BME280;47810;42.264;23.826;2023-02-23T14:53:58;93764.72;;;13.09;49.10
61870;BME280;47810;42.264;23.826;2023-02-23T14:56:24;93762.44;;;13.04;49.61
61870;BME280;47810;42.264;23.826;2023-02-23T14:58:53;93760.94;;;12.89;49.82
61870;BME280;47810;42.264;23.826;2023-02-23T15:01:36;93757.00;;;12.59;50.42
61870;BME280;47810;42.264;23.826;2023-02-23T15:04:12;93773.00;;;12.57;50.97
61870;BME280;47810;42.264;23.826;2023-02-23T15:06:40;93771.81;;;12.38;51.53
61870;BME280;47810;42.264;23.826;2023-02-23T15:09:17;93762.69;;;12.42;51.82
61870;BME280;47810;42.264;23.826;2023-02-23T15:11:48;93766.91;;;12.44;51.92
61870;BME280;47810;42.264;23.826;2023-02-23T15:14:18;93770.81;;;12.27;52.49
61870;BME280;47810;42.264;23.826;2023-02-23T15:16:44;93778.25;;;12.22;52.71
61870;BME280;47810;42.264;23.826;2023-02-23T15:19:12;93776.81;;;12.05;53.21
61870;BME280;47810;42.264;23.826;2023-02-23T15:21:41;93786.03;;;12.00;53.04
61870;BME280;47810;42.264;23.826;2023-02-23T15:24:11;93782.59;;;11.86;54.11
61870;BME280;47810;42.264;23.826;2023-02-23T15:26:39;93793.19;;;11.61;54.86
61870;BME280;47810;42.264;23.826;2023-02-23T15:29:17;93794.00;;;11.74;54.67
61870;BME280;47810;42.264;23.826;2023-02-23T15:31:46;93780.91;;;11.73;54.54
61870;BME280;47810;42.264;23.826;2023-02-23T15:34:18;93792.97;;;11.64;55.11
61870;BME280;47810;42.264;23.826;2023-02-23T15:37:00;93791.94;;;11.54;55.22
61870;BME280;47810;42.264;23.826;2023-02-23T15:39:37;93800.63;;;11.30;56.18
61870;BME280;47810;42.264;23.826;2023-02-23T15:42:07;93804.63;;;11.23;56.19
61870;BME280;47810;42.264;23.826;2023-02-23T15:44:35;93812.25;;;11.28;56.29
61870;BME280;47810;42.264;23.826;2023-02-23T15:47:03;93805.03;;;11.30;57.13